sensor_id;sensor_type;location;lat;lon;timestamp;temperature;humidity
41628;DHT22;27321;50.816;6.054;2023-06-14T00:00:10;21.50;49.40
41628;DHT22;27321;50.816;6.054;2023-06-14T00:03:12;21.40;49.70
41628;DHT22;27321;50.816;6.054;2023-06-14T00:06:17;21.40;49.80
41628;DHT22;27321;50.816;6.054;2023-06-14T00:09:18;21.40;49.90
41628;DHT22;27321;50.816;6.054;2023-06-14T00:12:19;21.30;49.80
41628;DHT22;27321;50.816;6.054;2023-06-14T00:15:20;21.30;50.00
41628;DHT22;27321;50.816;6.054;2023-06-14T00:18:22;21.30;50.00
41628;DHT22;27321;50.816;6.054;2023-06-14T00:21:30;21.30;50.00
41628;DHT22;27321;50.816;6.054;2023-06-14T00:24:31;21.20;50.00
41628;DHT22;27321;50.816;6.054;2023-06-14T00:27:32;21.20;50.00
41628;DHT22;27321;50.816;6.054;2023-06-14T00:30:33;21.10;50.10
41628;DHT22;27321;50.816;6.054;2023-06-14T00:33:34;21.10;50.30
41628;DHT22;27321;50.816;6.054;2023-06-14T00:36:34;21.00;50.30
41628;DHT22;27321;50.816;6.054;2023-06-14T00:39:35;21.00;50.60
41628;DHT22;27321;50.816;6.054;2023-06-14T00:42:36;21.00;50.60
41628;DHT22;27321;50.816;6.054;2023-06-14T00:45:37;21.00;50.70
41628;DHT22;27321;50.816;6.054;2023-06-14T00:48:38;20.90;50.70
41628;DHT22;27321;50.816;6.054;2023-06-14T00:51:41;20.90;50.70
41628;DHT22;27321;50.816;6.054;2023-06-14T00:54:42;20.80;50.50
41628;DHT22;27321;50.816;6.054;2023-06-14T00:57:44;20.80;50.90
41628;DHT22;27321;50.816;6.054;2023-06-14T01:00:47;20.80;50.80
41628;DHT22;27321;50.816;6.054;2023-06-14T01:03:49;20.80;50.90
41628;DHT22;27321;50.816;6.054;2023-06-14T01:06:54;20.70;50.90
41628;DHT22;27321;50.816;6.054;2023-06-14T01:13:34;20.60;51.00
41628;DHT22;27321;50.816;6.054;2023-06-14T01:16:35;20.60;51.20
41628;DHT22;27321;50.816;6.054;2023-06-14T01:19:36;20.60;51.20
41628;DHT22;27321;50.816;6.054;2023-06-14T01:22:37;20.50;51.30
41628;DHT22;27321;50.816;6.054;2023-06-14T01:25:43;20.50;51.50
41628;DHT22;27321;50.816;6.054;2023-06-14T01:28:46;20.50;51.80
41628;DHT22;27321;50.816;6.054;2023-06-14T01:31:49;20.40;51.60
41628;DHT22;27321;50.816;6.054;2023-06-14T01:34:51;20.30;51.90
41628;DHT22;27321;50.816;6.054;2023-06-14T01:37:51;20.30;51.90
41628;DHT22;27321;50.816;6.054;2023-06-14T01:40:54;20.30;51.90
41628;DHT22;27321;50.816;6.054;2023-06-14T01:43:56;20.20;51.60
41628;DHT22;27321;50.816;6.054;2023-06-14T01:46:57;20.10;51.70
41628;DHT22;27321;50.816;6.054;2023-06-14T01:49:58;20.00;52.10
41628;DHT22;27321;50.816;6.054;2023-06-14T01:52:59;20.00;52.50
41628;DHT22;27321;50.816;6.054;2023-06-14T01:56:00;19.90;52.70
41628;DHT22;27321;50.816;6.054;2023-06-14T01:59:05;19.90;52.80
41628;DHT22;27321;50.816;6.054;2023-06-14T02:02:07;19.80;52.60
41628;DHT22;27321;50.816;6.054;2023-06-14T02:05:08;19.70;52.60
41628;DHT22;27321;50.816;6.054;2023-06-14T02:08:09;19.60;53.20
41628;DHT22;27321;50.816;6.054;2023-06-14T02:11:12;19.70;53.30
41628;DHT22;27321;50.816;6.054;2023-06-14T02:14:12;19.70;53.20
41628;DHT22;27321;50.816;6.054;2023-06-14T02:17:15;19.70;53.30
41628;DHT22;27321;50.816;6.054;2023-06-14T02:20:16;19.70;53.40
41628;DHT22;27321;50.816;6.054;2023-06-14T02:23:17;19.70;53.40
41628;DHT22;27321;50.816;6.054;2023-06-14T02:26:18;19.60;53.50
41628;DHT22;27321;50.816;6.054;2023-06-14T02:29:19;19.60;53.60
41628;DHT22;27321;50.816;6.054;2023-06-14T02:32:20;19.60;53.50
41628;DHT22;27321;50.816;6.054;2023-06-14T02:35:20;19.60;53.60
41628;DHT22;27321;50.816;6.054;2023-06-14T02:38:22;19.60;53.70
41628;DHT22;27321;50.816;6.054;2023-06-14T02:41:24;19.60;53.80
41628;DHT22;27321;50.816;6.054;2023-06-14T02:44:27;19.60;53.70
41628;DHT22;27321;50.816;6.054;2023-06-14T02:47:28;19.60;53.60
41628;DHT22;27321;50.816;6.054;2023-06-14T02:50:29;19.50;53.70
41628;DHT22;27321;50.816;6.054;2023-06-14T02:53:31;19.50;53.90
41628;DHT22;27321;50.816;6.054;2023-06-14T02:56:32;19.50;53.90
41628;DHT22;27321;50.816;6.054;2023-06-14T02:59:34;19.40;54.00
41628;DHT22;27321;50.816;6.054;2023-06-14T03:02:36;19.40;54.10
41628;DHT22;27321;50.816;6.054;2023-06-14T03:05:37;19.40;54.30
41628;DHT22;27321;50.816;6.054;2023-06-14T03:08:41;19.30;54.10
41628;DHT22;27321;50.816;6.054;2023-06-14T03:11:48;19.20;54.70
41628;DHT22;27321;50.816;6.054;2023-06-14T03:14:48;19.20;54.80
41628;DHT22;27321;50.816;6.054;2023-06-14T03:17:52;19.20;54.90
41628;DHT22;27321;50.816;6.054;2023-06-14T03:20:55;19.10;55.20
41628;DHT22;27321;50.816;6.054;2023-06-14T03:23:58;19.10;55.50
41628;DHT22;27321;50.816;6.054;2023-06-14T03:26:59;19.10;55.20
41628;DHT22;27321;50.816;6.054;2023-06-14T03:30:03;19.10;55.20
41628;DHT22;27321;50.816;6.054;2023-06-14T03:33:06;19.10;55.10
41628;DHT22;27321;50.816;6.054;2023-06-14T03:36:12;19.10;55.10
41628;DHT22;27321;50.816;6.054;2023-06-14T03:39:14;19.10;55.00
41628;DHT22;27321;50.816;6.054;2023-06-14T03:42:16;19.00;55.30
41628;DHT22;27321;50.816;6.054;2023-06-14T03:45:18;19.00;55.50
41628;DHT22;27321;50.816;6.054;2023-06-14T03:48:19;19.00;55.50
41628;DHT22;27321;50.816;6.054;2023-06-14T03:51:20;19.00;55.70
41628;DHT22;27321;50.816;6.054;2023-06-14T03:54:21;19.00;55.80
41628;DHT22;27321;50.816;6.054;2023-06-14T03:57:24;19.00;55.90
41628;DHT22;27321;50.816;6.054;2023-06-14T04:00:25;19.00;55.90
41628;DHT22;27321;50.816;6.054;2023-06-14T04:03:27;19.00;56.20
41628;DHT22;27321;50.816;6.054;2023-06-14T04:06:32;18.90;56.20
41628;DHT22;27321;50.816;6.054;2023-06-14T04:09:33;18.90;56.40
41628;DHT22;27321;50.816;6.054;2023-06-14T04:12:34;19.00;56.50
41628;DHT22;27321;50.816;6.054;2023-06-14T04:15:35;19.00;56.50
41628;DHT22;27321;50.816;6.054;2023-06-14T04:18:38;19.00;56.70
41628;DHT22;27321;50.816;6.054;2023-06-14T04:21:39;19.00;56.90
41628;DHT22;27321;50.816;6.054;2023-06-14T04:24:41;19.00;56.70
41628;DHT22;27321;50.816;6.054;2023-06-14T04:27:45;19.00;56.90
41628;DHT22;27321;50.816;6.054;2023-06-14T04:30:48;19.00;56.80
41628;DHT22;27321;50.816;6.054;2023-06-14T04:33:50;19.10;56.80
41628;DHT22;27321;50.816;6.054;2023-06-14T04:36:55;19.10;56.90
41628;DHT22;27321;50.816;6.054;2023-06-14T04:40:02;19.10;56.90
41628;DHT22;27321;50.816;6.054;2023-06-14T04:43:06;19.10;57.40
41628;DHT22;27321;50.816;6.054;2023-06-14T04:46:08;19.10;57.20
41628;DHT22;27321;50.816;6.054;2023-06-14T04:49:12;19.20;57.70
41628;DHT22;27321;50.816;6.054;2023-06-14T04:52:15;19.30;57.40
41628;DHT22;27321;50.816;6.054;2023-06-14T04:55:19;19.30;57.50
41628;DHT22;27321;50.816;6.054;2023-06-14T04:58:20;19.50;57.40
41628;DHT22;27321;50.816;6.054;2023-06-14T05:01:21;19.50;57.50
41628;DHT22;27321;50.816;6.054;2023-06-14T05:04:23;19.60;57.00
41628;DHT22;27321;50.816;6.054;2023-06-14T05:07:26;19.70;57.30
41628;DHT22;27321;50.816;6.054;2023-06-14T05:10:27;19.70;57.30
41628;DHT22;27321;50.816;6.054;2023-06-14T05:13:28;19.90;57.10
41628;DHT22;27321;50.816;6.054;2023-06-14T05:16:30;19.90;57.50
41628;DHT22;27321;50.816;6.054;2023-06-14T05:19:33;20.00;55.90
41628;DHT22;27321;50.816;6.054;2023-06-14T05:22:34;20.10;56.50
41628;DHT22;27321;50.816;6.054;2023-06-14T05:25:35;20.10;55.20
41628;DHT22;27321;50.816;6.054;2023-06-14T05:28:36;20.20;54.30
41628;DHT22;27321;50.816;6.054;2023-06-14T05:31:37;20.20;52.50
41628;DHT22;27321;50.816;6.054;2023-06-14T05:34:38;20.30;51.80
41628;DHT22;27321;50.816;6.054;2023-06-14T05:37:39;20.40;51.30
41628;DHT22;27321;50.816;6.054;2023-06-14T05:40:40;20.40;50.80
41628;DHT22;27321;50.816;6.054;2023-06-14T05:43:40;20.50;49.80
41628;DHT22;27321;50.816;6.054;2023-06-14T05:46:41;20.50;50.00
41628;DHT22;27321;50.816;6.054;2023-06-14T05:49:42;20.50;48.90
41628;DHT22;27321;50.816;6.054;2023-06-14T05:52:43;20.50;48.90
41628;DHT22;27321;50.816;6.054;2023-06-14T05:55:44;20.40;48.10
41628;DHT22;27321;50.816;6.054;2023-06-14T05:58:45;20.30;48.10
41628;DHT22;27321;50.816;6.054;2023-06-14T06:01:46;20.40;48.30
41628;DHT22;27321;50.816;6.054;2023-06-14T06:04:47;20.40;48.40
41628;DHT22;27321;50.816;6.054;2023-06-14T06:07:48;20.40;48.80
41628;DHT22;27321;50.816;6.054;2023-06-14T06:10:49;20.40;48.30
41628;DHT22;27321;50.816;6.054;2023-06-14T06:13:50;20.50;48.30
41628;DHT22;27321;50.816;6.054;2023-06-14T06:16:51;20.50;49.40
41628;DHT22;27321;50.816;6.054;2023-06-14T06:19:53;20.50;48.00
41628;DHT22;27321;50.816;6.054;2023-06-14T06:22:54;20.60;47.70
41628;DHT22;27321;50.816;6.054;2023-06-14T06:25:55;20.40;46.60
41628;DHT22;27321;50.816;6.054;2023-06-14T06:28:55;20.30;46.20
41628;DHT22;27321;50.816;6.054;2023-06-14T06:31:57;20.20;46.70
41628;DHT22;27321;50.816;6.054;2023-06-14T06:34:58;20.20;46.60
41628;DHT22;27321;50.816;6.054;2023-06-14T06:38:00;20.20;47.40
41628;DHT22;27321;50.816;6.054;2023-06-14T06:41:01;20.10;47.20
41628;DHT22;27321;50.816;6.054;2023-06-14T06:44:02;20.20;47.30
41628;DHT22;27321;50.816;6.054;2023-06-14T06:47:03;20.20;47.10
41628;DHT22;27321;50.816;6.054;2023-06-14T06:50:05;20.30;48.10
41628;DHT22;27321;50.816;6.054;2023-06-14T06:53:08;20.30;47.50
41628;DHT22;27321;50.816;6.054;2023-06-14T06:56:08;20.40;47.40
41628;DHT22;27321;50.816;6.054;2023-06-14T06:59:09;20.50;47.40
41628;DHT22;27321;50.816;6.054;2023-06-14T07:02:10;20.60;47.20
41628;DHT22;27321;50.816;6.054;2023-06-14T07:05:11;20.70;47.30
41628;DHT22;27321;50.816;6.054;2023-06-14T07:08:12;20.80;47.20
41628;DHT22;27321;50.816;6.054;2023-06-14T07:11:13;20.90;46.20
41628;DHT22;27321;50.816;6.054;2023-06-14T07:14:14;20.90;46.10
41628;DHT22;27321;50.816;6.054;2023-06-14T07:17:15;21.00;46.30
41628;DHT22;27321;50.816;6.054;2023-06-14T07:20:16;21.10;46.50
41628;DHT22;27321;50.816;6.054;2023-06-14T07:23:17;21.10;45.90
41628;DHT22;27321;50.816;6.054;2023-06-14T07:26:18;21.10;47.90
41628;DHT22;27321;50.816;6.054;2023-06-14T07:29:19;21.20;46.50
41628;DHT22;27321;50.816;6.054;2023-06-14T07:32:20;21.20;45.90
41628;DHT22;27321;50.816;6.054;2023-06-14T07:35:21;21.20;45.70
41628;DHT22;27321;50.816;6.054;2023-06-14T07:38:22;21.30;46.30
41628;DHT22;27321;50.816;6.054;2023-06-14T07:41:23;21.10;44.90
41628;DHT22;27321;50.816;6.054;2023-06-14T07:44:24;21.10;46.00
41628;DHT22;27321;50.816;6.054;2023-06-14T07:47:25;21.10;45.40
41628;DHT22;27321;50.816;6.054;2023-06-14T07:50:26;21.10;44.50
41628;DHT22;27321;50.816;6.054;2023-06-14T07:53:26;21.10;44.90
41628;DHT22;27321;50.816;6.054;2023-06-14T07:56:27;21.20;44.80
41628;DHT22;27321;50.816;6.054;2023-06-14T07:59:28;21.10;44.80
41628;DHT22;27321;50.816;6.054;2023-06-14T08:02:29;21.20;45.00
41628;DHT22;27321;50.816;6.054;2023-06-14T08:05:30;21.30;44.20
41628;DHT22;27321;50.816;6.054;2023-06-14T08:08:30;21.40;45.10
41628;DHT22;27321;50.816;6.054;2023-06-14T08:11:31;21.50;45.80
41628;DHT22;27321;50.816;6.054;2023-06-14T08:14:33;21.60;43.40
41628;DHT22;27321;50.816;6.054;2023-06-14T08:17:34;21.70;43.10
41628;DHT22;27321;50.816;6.054;2023-06-14T08:20:35;21.60;42.70
41628;DHT22;27321;50.816;6.054;2023-06-14T08:23:36;21.70;43.20
41628;DHT22;27321;50.816;6.054;2023-06-14T08:26:37;21.70;41.90
41628;DHT22;27321;50.816;6.054;2023-06-14T08:29:38;21.70;41.80
41628;DHT22;27321;50.816;6.054;2023-06-14T08:32:41;21.80;42.20
41628;DHT22;27321;50.816;6.054;2023-06-14T08:35:41;21.80;43.20
41628;DHT22;27321;50.816;6.054;2023-06-14T08:38:42;22.00;42.40
41628;DHT22;27321;50.816;6.054;2023-06-14T08:41:47;22.00;41.70
41628;DHT22;27321;50.816;6.054;2023-06-14T08:44:51;22.00;41.50
41628;DHT22;27321;50.816;6.054;2023-06-14T08:47:52;22.00;41.90
41628;DHT22;27321;50.816;6.054;2023-06-14T08:50:59;22.10;41.30
41628;DHT22;27321;50.816;6.054;2023-06-14T08:54:02;22.10;41.10
41628;DHT22;27321;50.816;6.054;2023-06-14T08:57:04;22.10;39.10
41628;DHT22;27321;50.816;6.054;2023-06-14T09:00:07;22.10;39.60
41628;DHT22;27321;50.816;6.054;2023-06-14T09:03:13;22.20;40.90
41628;DHT22;27321;50.816;6.054;2023-06-14T09:06:14;22.20;38.60
41628;DHT22;27321;50.816;6.054;2023-06-14T09:09:16;22.20;39.70
41628;DHT22;27321;50.816;6.054;2023-06-14T09:12:17;22.30;41.30
41628;DHT22;27321;50.816;6.054;2023-06-14T09:15:18;22.30;40.10
41628;DHT22;27321;50.816;6.054;2023-06-14T09:18:18;22.40;40.20
41628;DHT22;27321;50.816;6.054;2023-06-14T09:21:20;22.30;39.40
41628;DHT22;27321;50.816;6.054;2023-06-14T09:24:23;22.40;40.30
41628;DHT22;27321;50.816;6.054;2023-06-14T09:27:26;22.50;41.40
41628;DHT22;27321;50.816;6.054;2023-06-14T09:30:27;22.50;40.00
41628;DHT22;27321;50.816;6.054;2023-06-14T09:33:28;22.60;38.90
41628;DHT22;27321;50.816;6.054;2023-06-14T09:36:31;22.60;39.90
41628;DHT22;27321;50.816;6.054;2023-06-14T09:39:32;22.60;40.30
41628;DHT22;27321;50.816;6.054;2023-06-14T09:42:33;22.60;40.20
41628;DHT22;27321;50.816;6.054;2023-06-14T09:45:36;22.80;40.10
41628;DHT22;27321;50.816;6.054;2023-06-14T09:49:07;22.80;39.50
41628;DHT22;27321;50.816;6.054;2023-06-14T09:52:17;22.90;40.70
41628;DHT22;27321;50.816;6.054;2023-06-14T09:55:19;22.90;39.20
41628;DHT22;27321;50.816;6.054;2023-06-14T09:58:20;23.00;40.60
41628;DHT22;27321;50.816;6.054;2023-06-14T10:01:29;23.10;39.50
41628;DHT22;27321;50.816;6.054;2023-06-14T10:04:32;23.10;38.80
41628;DHT22;27321;50.816;6.054;2023-06-14T10:07:54;23.20;38.00
41628;DHT22;27321;50.816;6.054;2023-06-14T10:10:57;23.20;38.50
41628;DHT22;27321;50.816;6.054;2023-06-14T10:13:58;23.20;39.00
41628;DHT22;27321;50.816;6.054;2023-06-14T10:17:08;23.20;39.30
41628;DHT22;27321;50.816;6.054;2023-06-14T10:23:37;23.30;37.70
41628;DHT22;27321;50.816;6.054;2023-06-14T10:26:57;23.30;37.70
41628;DHT22;27321;50.816;6.054;2023-06-14T10:30:02;23.40;37.30
41628;DHT22;27321;50.816;6.054;2023-06-14T10:33:08;23.40;36.10
41628;DHT22;27321;50.816;6.054;2023-06-14T10:39:23;23.40;37.10
41628;DHT22;27321;50.816;6.054;2023-06-14T10:42:50;23.40;35.90
41628;DHT22;27321;50.816;6.054;2023-06-14T10:52:43;23.50;36.20
41628;DHT22;27321;50.816;6.054;2023-06-14T10:55:44;23.50;36.30
41628;DHT22;27321;50.816;6.054;2023-06-14T10:58:45;23.50;36.80
41628;DHT22;27321;50.816;6.054;2023-06-14T11:05:15;23.60;35.60
41628;DHT22;27321;50.816;6.054;2023-06-14T11:11:46;23.60;34.40
41628;DHT22;27321;50.816;6.054;2023-06-14T11:14:48;23.70;34.80
41628;DHT22;27321;50.816;6.054;2023-06-14T11:17:51;23.60;34.10
41628;DHT22;27321;50.816;6.054;2023-06-14T11:20:53;23.80;34.20
41628;DHT22;27321;50.816;6.054;2023-06-14T11:23:55;23.90;34.90
41628;DHT22;27321;50.816;6.054;2023-06-14T11:26:56;23.90;32.90
41628;DHT22;27321;50.816;6.054;2023-06-14T11:29:57;24.00;34.20
41628;DHT22;27321;50.816;6.054;2023-06-14T11:32:59;23.90;34.20
41628;DHT22;27321;50.816;6.054;2023-06-14T11:36:05;23.80;33.70
41628;DHT22;27321;50.816;6.054;2023-06-14T11:39:08;23.80;34.30
41628;DHT22;27321;50.816;6.054;2023-06-14T11:42:16;23.90;33.80
41628;DHT22;27321;50.816;6.054;2023-06-14T11:45:18;23.90;33.70
41628;DHT22;27321;50.816;6.054;2023-06-14T11:48:19;24.00;34.70
41628;DHT22;27321;50.816;6.054;2023-06-14T11:51:20;24.00;33.70
41628;DHT22;27321;50.816;6.054;2023-06-14T11:54:21;24.00;34.50
41628;DHT22;27321;50.816;6.054;2023-06-14T11:57:22;24.00;34.40
41628;DHT22;27321;50.816;6.054;2023-06-14T12:00:25;24.10;35.70
41628;DHT22;27321;50.816;6.054;2023-06-14T12:03:26;24.00;35.90
41628;DHT22;27321;50.816;6.054;2023-06-14T12:06:31;24.10;34.60
41628;DHT22;27321;50.816;6.054;2023-06-14T12:09:36;24.10;34.30
41628;DHT22;27321;50.816;6.054;2023-06-14T12:12:39;24.10;35.00
41628;DHT22;27321;50.816;6.054;2023-06-14T12:15:41;24.10;36.20
41628;DHT22;27321;50.816;6.054;2023-06-14T12:18:41;24.10;36.30
41628;DHT22;27321;50.816;6.054;2023-06-14T12:21:46;24.10;37.10
41628;DHT22;27321;50.816;6.054;2023-06-14T12:24:49;24.10;37.50
41628;DHT22;27321;50.816;6.054;2023-06-14T12:27:50;24.10;37.50
41628;DHT22;27321;50.816;6.054;2023-06-14T12:30:51;24.10;38.30
41628;DHT22;27321;50.816;6.054;2023-06-14T12:33:53;24.20;36.80
41628;DHT22;27321;50.816;6.054;2023-06-14T12:36:54;24.10;36.00
41628;DHT22;27321;50.816;6.054;2023-06-14T12:39:55;24.10;37.50
41628;DHT22;27321;50.816;6.054;2023-06-14T12:42:56;24.20;37.80
41628;DHT22;27321;50.816;6.054;2023-06-14T12:45:57;24.10;35.80
41628;DHT22;27321;50.816;6.054;2023-06-14T12:48:57;24.20;36.90
41628;DHT22;27321;50.816;6.054;2023-06-14T12:51:58;24.10;36.40
41628;DHT22;27321;50.816;6.054;2023-06-14T12:55:00;24.20;36.70
41628;DHT22;27321;50.816;6.054;2023-06-14T12:58:01;24.20;36.60
41628;DHT22;27321;50.816;6.054;2023-06-14T13:01:02;24.20;36.60
41628;DHT22;27321;50.816;6.054;2023-06-14T13:04:03;24.20;36.20
41628;DHT22;27321;50.816;6.054;2023-06-14T13:07:04;24.30;36.30
41628;DHT22;27321;50.816;6.054;2023-06-14T13:10:06;24.40;36.50
41628;DHT22;27321;50.816;6.054;2023-06-14T13:13:07;24.40;34.70
41628;DHT22;27321;50.816;6.054;2023-06-14T13:16:09;24.30;35.20
41628;DHT22;27321;50.816;6.054;2023-06-14T13:19:11;24.40;35.30
41628;DHT22;27321;50.816;6.054;2023-06-14T13:22:12;24.40;36.20
41628;DHT22;27321;50.816;6.054;2023-06-14T13:25:13;24.50;36.50
41628;DHT22;27321;50.816;6.054;2023-06-14T13:28:14;24.40;35.80
41628;DHT22;27321;50.816;6.054;2023-06-14T13:31:15;24.50;35.70
41628;DHT22;27321;50.816;6.054;2023-06-14T13:34:16;24.40;35.20
41628;DHT22;27321;50.816;6.054;2023-06-14T13:37:17;24.40;35.30
41628;DHT22;27321;50.816;6.054;2023-06-14T13:40:21;24.40;35.20
41628;DHT22;27321;50.816;6.054;2023-06-14T13:43:21;24.40;34.70
41628;DHT22;27321;50.816;6.054;2023-06-14T13:46:23;24.50;35.50
41628;DHT22;27321;50.816;6.054;2023-06-14T13:49:24;24.60;35.70
41628;DHT22;27321;50.816;6.054;2023-06-14T13:52:25;24.60;36.00
41628;DHT22;27321;50.816;6.054;2023-06-14T13:55:26;24.70;35.30
41628;DHT22;27321;50.816;6.054;2023-06-14T13:58:27;24.80;36.00
41628;DHT22;27321;50.816;6.054;2023-06-14T14:01:30;24.80;34.70
41628;DHT22;27321;50.816;6.054;2023-06-14T14:04:30;24.80;35.00
41628;DHT22;27321;50.816;6.054;2023-06-14T14:07:32;24.80;35.50
41628;DHT22;27321;50.816;6.054;2023-06-14T14:10:33;24.80;36.70
41628;DHT22;27321;50.816;6.054;2023-06-14T14:13:34;24.80;36.00
41628;DHT22;27321;50.816;6.054;2023-06-14T14:16:37;24.80;35.80
41628;DHT22;27321;50.816;6.054;2023-06-14T14:19:38;24.80;36.50
41628;DHT22;27321;50.816;6.054;2023-06-14T14:22:39;24.90;36.30
41628;DHT22;27321;50.816;6.054;2023-06-14T14:25:40;24.80;35.70
41628;DHT22;27321;50.816;6.054;2023-06-14T14:28:41;24.90;36.80
41628;DHT22;27321;50.816;6.054;2023-06-14T14:31:42;24.80;36.40
41628;DHT22;27321;50.816;6.054;2023-06-14T14:34:43;24.80;37.00
41628;DHT22;27321;50.816;6.054;2023-06-14T14:37:44;24.90;38.10
41628;DHT22;27321;50.816;6.054;2023-06-14T14:40:45;25.00;36.90
41628;DHT22;27321;50.816;6.054;2023-06-14T14:43:46;25.00;37.20
41628;DHT22;27321;50.816;6.054;2023-06-14T14:46:47;25.00;38.10
41628;DHT22;27321;50.816;6.054;2023-06-14T14:49:48;25.00;38.10
41628;DHT22;27321;50.816;6.054;2023-06-14T14:52:49;25.00;37.70
41628;DHT22;27321;50.816;6.054;2023-06-14T14:55:50;25.00;37.20
41628;DHT22;27321;50.816;6.054;2023-06-14T14:58:51;25.00;37.10
41628;DHT22;27321;50.816;6.054;2023-06-14T15:01:52;25.00;37.10
41628;DHT22;27321;50.816;6.054;2023-06-14T15:04:53;25.10;37.90
41628;DHT22;27321;50.816;6.054;2023-06-14T15:07:55;25.10;37.90
41628;DHT22;27321;50.816;6.054;2023-06-14T15:10:56;25.20;37.60
41628;DHT22;27321;50.816;6.054;2023-06-14T15:13:57;25.20;37.00
41628;DHT22;27321;50.816;6.054;2023-06-14T15:16:58;25.30;37.20
41628;DHT22;27321;50.816;6.054;2023-06-14T15:20:02;25.30;37.40
41628;DHT22;27321;50.816;6.054;2023-06-14T15:23:04;25.40;37.20
41628;DHT22;27321;50.816;6.054;2023-06-14T15:26:05;25.50;36.40
41628;DHT22;27321;50.816;6.054;2023-06-14T15:29:06;25.50;37.10
41628;DHT22;27321;50.816;6.054;2023-06-14T15:32:07;25.50;37.50
41628;DHT22;27321;50.816;6.054;2023-06-14T15:35:08;25.50;36.60
41628;DHT22;27321;50.816;6.054;2023-06-14T15:38:09;25.60;36.50
41628;DHT22;27321;50.816;6.054;2023-06-14T15:41:10;25.60;36.80
41628;DHT22;27321;50.816;6.054;2023-06-14T15:44:11;25.80;36.40
41628;DHT22;27321;50.816;6.054;2023-06-14T15:47:12;25.80;35.50
41628;DHT22;27321;50.816;6.054;2023-06-14T15:50:13;25.80;34.80
41628;DHT22;27321;50.816;6.054;2023-06-14T15:53:13;25.80;35.00
41628;DHT22;27321;50.816;6.054;2023-06-14T15:56:15;25.90;34.90
41628;DHT22;27321;50.816;6.054;2023-06-14T15:59:16;26.00;34.70
41628;DHT22;27321;50.816;6.054;2023-06-14T16:02:17;26.10;35.20
41628;DHT22;27321;50.816;6.054;2023-06-14T16:05:18;26.20;35.10
41628;DHT22;27321;50.816;6.054;2023-06-14T16:08:19;26.20;34.40
41628;DHT22;27321;50.816;6.054;2023-06-14T16:11:20;26.20;33.60
41628;DHT22;27321;50.816;6.054;2023-06-14T16:14:21;26.20;33.70
41628;DHT22;27321;50.816;6.054;2023-06-14T16:17:22;26.40;33.70
41628;DHT22;27321;50.816;6.054;2023-06-14T16:20:23;26.50;33.80
41628;DHT22;27321;50.816;6.054;2023-06-14T16:23:24;26.50;33.70
41628;DHT22;27321;50.816;6.054;2023-06-14T16:26:25;26.50;33.10
41628;DHT22;27321;50.816;6.054;2023-06-14T16:29:27;26.50;32.50
41628;DHT22;27321;50.816;6.054;2023-06-14T16:32:28;26.60;32.80
41628;DHT22;27321;50.816;6.054;2023-06-14T16:35:29;26.60;32.70
41628;DHT22;27321;50.816;6.054;2023-06-14T16:38:32;26.60;32.70
41628;DHT22;27321;50.816;6.054;2023-06-14T16:41:32;26.60;32.90
41628;DHT22;27321;50.816;6.054;2023-06-14T16:44:33;26.60;32.90
41628;DHT22;27321;50.816;6.054;2023-06-14T16:47:34;26.70;32.70
41628;DHT22;27321;50.816;6.054;2023-06-14T16:50:36;26.70;32.90
41628;DHT22;27321;50.816;6.054;2023-06-14T16:53:37;26.80;32.70
41628;DHT22;27321;50.816;6.054;2023-06-14T16:56:38;26.90;32.50
41628;DHT22;27321;50.816;6.054;2023-06-14T16:59:39;26.70;31.70
41628;DHT22;27321;50.816;6.054;2023-06-14T17:02:39;26.50;31.80
41628;DHT22;27321;50.816;6.054;2023-06-14T17:05:56;26.40;32.20
41628;DHT22;27321;50.816;6.054;2023-06-14T17:08:57;26.40;32.40
41628;DHT22;27321;50.816;6.054;2023-06-14T17:11:58;26.50;32.90
41628;DHT22;27321;50.816;6.054;2023-06-14T17:14:59;26.60;32.40
41628;DHT22;27321;50.816;6.054;2023-06-14T17:18:00;26.60;32.20
41628;DHT22;27321;50.816;6.054;2023-06-14T17:21:01;26.60;32.70
41628;DHT22;27321;50.816;6.054;2023-06-14T17:24:03;26.70;32.90
41628;DHT22;27321;50.816;6.054;2023-06-14T17:27:04;26.80;32.00
41628;DHT22;27321;50.816;6.054;2023-06-14T17:30:06;26.90;31.40
41628;DHT22;27321;50.816;6.054;2023-06-14T17:33:08;27.00;32.00
41628;DHT22;27321;50.816;6.054;2023-06-14T17:36:10;27.30;31.70
41628;DHT22;27321;50.816;6.054;2023-06-14T17:39:11;27.30;31.40
41628;DHT22;27321;50.816;6.054;2023-06-14T17:42:12;27.20;31.20
41628;DHT22;27321;50.816;6.054;2023-06-14T17:45:13;26.90;31.20
41628;DHT22;27321;50.816;6.054;2023-06-14T17:48:14;26.70;31.60
41628;DHT22;27321;50.816;6.054;2023-06-14T17:51:14;26.50;31.80
41628;DHT22;27321;50.816;6.054;2023-06-14T17:54:16;26.20;31.90
41628;DHT22;27321;50.816;6.054;2023-06-14T17:57:17;26.00;32.40
41628;DHT22;27321;50.816;6.054;2023-06-14T18:00:17;25.90;32.80
41628;DHT22;27321;50.816;6.054;2023-06-14T18:03:19;25.90;33.10
41628;DHT22;27321;50.816;6.054;2023-06-14T18:06:20;25.70;32.80
41628;DHT22;27321;50.816;6.054;2023-06-14T18:09:21;25.70;32.90
41628;DHT22;27321;50.816;6.054;2023-06-14T18:12:22;25.70;33.40
41628;DHT22;27321;50.816;6.054;2023-06-14T18:15:23;25.60;33.80
41628;DHT22;27321;50.816;6.054;2023-06-14T18:18:24;25.60;34.40
41628;DHT22;27321;50.816;6.054;2023-06-14T18:21:25;25.60;34.40
41628;DHT22;27321;50.816;6.054;2023-06-14T18:24:26;25.50;34.30
41628;DHT22;27321;50.816;6.054;2023-06-14T18:27:27;25.50;34.60
41628;DHT22;27321;50.816;6.054;2023-06-14T18:30:29;25.40;34.30
41628;DHT22;27321;50.816;6.054;2023-06-14T18:33:31;25.30;34.50
41628;DHT22;27321;50.816;6.054;2023-06-14T18:36:32;25.30;34.60
41628;DHT22;27321;50.816;6.054;2023-06-14T18:39:34;25.30;34.40
41628;DHT22;27321;50.816;6.054;2023-06-14T18:42:35;25.20;34.60
41628;DHT22;27321;50.816;6.054;2023-06-14T18:45:36;25.20;34.50
41628;DHT22;27321;50.816;6.054;2023-06-14T18:48:37;25.00;34.60
41628;DHT22;27321;50.816;6.054;2023-06-14T18:51:39;25.00;34.80
41628;DHT22;27321;50.816;6.054;2023-06-14T18:54:40;24.90;34.80
41628;DHT22;27321;50.816;6.054;2023-06-14T18:57:41;24.90;34.70
41628;DHT22;27321;50.816;6.054;2023-06-14T19:00:42;24.80;35.10
41628;DHT22;27321;50.816;6.054;2023-06-14T19:03:43;24.90;35.30
41628;DHT22;27321;50.816;6.054;2023-06-14T19:06:44;24.80;35.40
41628;DHT22;27321;50.816;6.054;2023-06-14T19:09:45;24.80;35.40
41628;DHT22;27321;50.816;6.054;2023-06-14T19:12:46;24.70;35.60
41628;DHT22;27321;50.816;6.054;2023-06-14T19:15:47;24.60;35.40
41628;DHT22;27321;50.816;6.054;2023-06-14T19:18:53;24.50;35.50
41628;DHT22;27321;50.816;6.054;2023-06-14T19:21:54;24.50;35.70
41628;DHT22;27321;50.816;6.054;2023-06-14T19:24:55;24.30;35.80
41628;DHT22;27321;50.816;6.054;2023-06-14T19:27:56;24.30;35.90
41628;DHT22;27321;50.816;6.054;2023-06-14T19:30:58;24.30;36.10